Time;durP1;ratioP1;P1;durP2;ratioP2;P2;SDS_P1;SDS_P2;PMS_P1;PMS_P2;Temp;Humidity;BMP_temperature;BMP_pressure;BME280_temperature;BME280_humidity;BME280_pressure;Samples;Min_cycle;Max_cycle;Signal;HPM_P1;HPM_P2
2022/04/03 00:01:01;;;;;;;9.50;4.32;;;2.70;99.90;;;;;;5122474;28;20028;-44
2022/04/03 00:03:27;;;;;;;4.47;3.60;;;2.70;99.90;;;;;;5122390;28;20371;-47
2022/04/03 00:05:52;;;;;;;4.70;4.07;;;2.70;99.90;;;;;;5120827;28;20032;-39
2022/04/03 00:08:18;;;;;;;6.85;5.25;;;2.70;99.90;;;;;;5099504;28;20020;-43
2022/04/03 00:10:45;;;;;;;6.20;4.78;;;2.80;99.90;;;;;;5099944;28;20020;-49
2022/04/03 00:13:11;;;;;;;5.30;4.07;;;2.80;99.90;;;;;;5118112;28;20094;-45
2022/04/03 00:15:41;;;;;;;7.65;4.38;;;2.80;99.90;;;;;;5118825;28;20058;-43
2022/04/03 00:18:07;;;;;;;6.80;4.15;;;2.80;99.90;;;;;;5118084;28;20043;-38
2022/04/03 00:20:35;;;;;;;6.45;3.83;;;2.80;99.90;;;;;;5118240;28;20029;-44
2022/04/03 00:23:01;;;;;;;9.80;4.65;;;2.80;99.90;;;;;;5118095;28;20032;-43
2022/04/03 00:25:26;;;;;;;6.43;4.40;;;2.70;99.90;;;;;;5100074;28;20043;-42
2022/04/03 00:27:52;;;;;;;6.05;4.57;;;2.70;99.90;;;;;;5117376;28;20028;-43
2022/04/03 00:30:17;;;;;;;6.25;4.93;;;2.70;99.90;;;;;;5099929;28;20081;-44
2022/04/03 00:32:43;;;;;;;5.57;3.90;;;2.80;99.90;;;;;;5117778;28;20509;-42
2022/04/03 00:35:09;;;;;;;8.50;4.78;;;2.80;99.90;;;;;;5099686;28;20034;-48
2022/04/03 00:37:34;;;;;;;5.18;4.13;;;2.70;99.90;;;;;;5117797;28;20058;-44
2022/04/03 00:40:00;;;;;;;7.97;4.45;;;2.70;99.90;;;;;;5118045;28;20059;-44
2022/04/03 00:42:27;;;;;;;4.93;3.85;;;2.70;99.90;;;;;;5117485;28;20023;-46
2022/04/03 00:44:52;;;;;;;7.07;3.83;;;2.60;99.90;;;;;;5099369;28;20051;-46
2022/04/03 00:47:20;;;;;;;4.70;4.05;;;2.60;99.90;;;;;;5098607;28;20023;-47
2022/04/03 00:49:46;;;;;;;5.93;4.50;;;2.70;99.90;;;;;;5117657;28;20024;-43
2022/04/03 00:52:11;;;;;;;6.15;5.07;;;2.70;99.90;;;;;;5117153;28;20038;-48
2022/04/03 00:54:37;;;;;;;5.50;4.43;;;2.60;99.90;;;;;;5117274;28;20066;-44
2022/04/03 00:57:07;;;;;;;6.53;4.78;;;2.70;99.90;;;;;;5120262;28;20031;-40
2022/04/03 00:59:34;;;;;;;6.43;4.57;;;2.70;99.90;;;;;;5119066;28;20076;-39
2022/04/03 01:02:00;;;;;;;6.15;4.53;;;2.70;99.90;;;;;;5120209;28;20031;-44
2022/04/03 01:04:25;;;;;;;8.05;4.57;;;2.70;99.90;;;;;;5121248;28;20057;-42
2022/04/03 01:06:51;;;;;;;9.07;4.97;;;2.60;99.90;;;;;;5119553;28;20080;-39
2022/04/03 01:09:16;;;;;;;5.70;4.13;;;2.60;99.90;;;;;;5117367;28;20028;-47
2022/04/03 01:11:44;;;;;;;14.45;4.63;;;2.60;99.90;;;;;;5116780;28;20023;-50
2022/04/03 01:14:10;;;;;;;5.25;4.32;;;2.60;99.90;;;;;;5116576;28;20036;-46
2022/04/03 01:16:36;;;;;;;5.20;4.43;;;2.50;99.90;;;;;;5116661;28;20042;-45
2022/04/03 01:19:03;;;;;;;68.78;40.17;;;2.50;99.90;;;;;;5116713;28;20047;-43
2022/04/03 01:21:28;;;;;;;34.35;21.88;;;2.60;99.90;;;;;;5116474;28;20035;-46
2022/04/03 01:23:55;;;;;;;8.07;6.10;;;2.60;99.90;;;;;;5115757;28;20032;-43
2022/04/03 01:26:24;;;;;;;6.97;5.07;;;2.50;99.90;;;;;;5116969;28;20026;-47
2022/04/03 01:28:51;;;;;;;6.57;4.28;;;2.40;99.90;;;;;;5117395;28;20064;-42
2022/04/03 01:31:17;;;;;;;5.10;4.30;;;2.40;99.90;;;;;;5117666;28;20081;-43
2022/04/03 01:33:43;;;;;;;8.48;5.60;;;2.40;99.90;;;;;;5117651;28;20507;-46
2022/04/03 01:36:09;;;;;;;6.38;4.95;;;2.40;99.90;;;;;;5099252;28;20329;-42
2022/04/03 01:38:34;;;;;;;6.20;4.80;;;2.40;99.90;;;;;;5117076;28;20019;-39
2022/04/03 01:41:00;;;;;;;6.28;4.13;;;2.30;99.90;;;;;;5099236;28;20035;-47
2022/04/03 01:43:26;;;;;;;4.80;4.30;;;2.30;99.90;;;;;;5117266;28;20015;-45
2022/04/03 01:45:51;;;;;;;5.10;4.57;;;2.30;99.90;;;;;;5099201;28;20475;-38
2022/04/03 01:48:18;;;;;;;8.30;4.65;;;2.30;99.90;;;;;;5117518;28;20106;-47
2022/04/03 01:50:43;;;;;;;6.38;4.70;;;2.20;99.90;;;;;;5116893;28;20096;-47
2022/04/03 01:53:09;;;;;;;6.38;4.50;;;2.20;99.90;;;;;;5117391;28;20059;-43
2022/04/03 01:55:34;;;;;;;6.75;4.68;;;2.20;99.90;;;;;;5117095;28;20040;-45
2022/04/03 01:58:00;;;;;;;9.27;5.03;;;2.20;99.90;;;;;;5098851;28;20024;-47
2022/04/03 02:00:26;;;;;;;5.43;4.47;;;2.20;99.90;;;;;;5116913;28;20024;-45
2022/04/03 02:02:52;;;;;;;5.75;4.75;;;2.20;99.90;;;;;;5116404;28;20031;-45
2022/04/03 02:05:17;;;;;;;9.27;5.60;;;2.10;99.90;;;;;;5116284;28;20032;-44
2022/04/03 02:07:43;;;;;;;7.45;5.10;;;2.10;99.90;;;;;;5115656;28;20023;-39
2022/04/03 02:10:09;;;;;;;8.90;5.18;;;2.10;99.90;;;;;;5098073;28;20031;-48
2022/04/03 02:12:39;;;;;;;4.15;3.75;;;2.10;99.90;;;;;;5117261;28;20143;-44
2022/04/03 02:15:06;;;;;;;6.10;4.50;;;2.10;99.90;;;;;;5116565;28;20448;-45
2022/04/03 02:17:32;;;;;;;5.20;4.18;;;2.10;99.90;;;;;;5116088;28;20061;-38
2022/04/03 02:19:57;;;;;;;4.32;3.92;;;2.10;99.90;;;;;;5098110;28;20418;-43
2022/04/03 02:22:23;;;;;;;6.30;5.15;;;2.10;99.90;;;;;;5117283;28;20036;-47
2022/04/03 02:24:49;;;;;;;8.07;4.50;;;2.00;99.90;;;;;;5119180;28;20509;-39
2022/04/03 02:27:14;;;;;;;6.40;4.63;;;1.90;99.90;;;;;;5120471;28;20066;-44
2022/04/03 02:29:40;;;;;;;6.15;4.60;;;1.90;99.90;;;;;;5120535;28;20035;-45
2022/04/03 02:32:06;;;;;;;5.03;4.55;;;1.80;99.90;;;;;;5118745;28;20481;-45
2022/04/03 02:34:31;;;;;;;6.55;4.55;;;1.90;99.90;;;;;;5116870;28;20024;-45
2022/04/03 02:36:57;;;;;;;8.85;5.60;;;1.70;99.90;;;;;;5117332;28;20028;-39
2022/04/03 02:39:23;;;;;;;6.93;5.28;;;1.70;99.90;;;;;;5116760;28;20020;-45
2022/04/03 02:41:48;;;;;;;5.85;4.50;;;1.60;99.90;;;;;;5117851;28;20042;-46
2022/04/03 02:44:15;;;;;;;6.68;4.57;;;1.60;99.90;;;;;;5117659;28;20028;-44
2022/04/03 02:46:40;;;;;;;7.30;4.95;;;1.60;99.90;;;;;;5117444;28;20470;-43
2022/04/03 02:49:08;;;;;;;8.32;5.22;;;1.50;99.90;;;;;;5118292;28;20015;-43
2022/04/03 02:51:34;;;;;;;10.15;4.97;;;1.50;99.90;;;;;;5117603;28;20012;-43
2022/04/03 02:54:00;;;;;;;7.53;5.03;;;1.50;99.90;;;;;;5117072;28;20024;-43
2022/04/03 02:56:25;;;;;;;7.95;5.25;;;1.60;99.90;;;;;;5118000;28;20110;-44
2022/04/03 02:58:53;;;;;;;5.10;4.57;;;1.50;99.90;;;;;;5117493;28;20034;-42
2022/04/03 03:01:19;;;;;;;8.80;5.05;;;1.50;99.90;;;;;;5117802;28;20024;-43
2022/04/03 03:03:44;;;;;;;9.75;5.50;;;1.40;99.90;;;;;;5117440;28;20070;-39
2022/04/03 03:06:10;;;;;;;11.13;5.45;;;1.40;99.90;;;;;;5099420;28;20019;-45
2022/04/03 03:08:35;;;;;;;7.25;5.22;;;1.30;99.90;;;;;;5117353;28;20077;-49
2022/04/03 03:11:01;;;;;;;8.40;5.93;;;1.30;99.90;;;;;;5117312;28;20030;-44
2022/04/03 03:13:27;;;;;;;11.52;5.57;;;1.30;99.90;;;;;;5117757;28;20022;-43
2022/04/03 03:15:53;;;;;;;6.32;4.93;;;1.20;99.90;;;;;;5119453;28;20019;-43
2022/04/03 03:18:19;;;;;;;6.13;4.63;;;1.20;99.90;;;;;;5118005;28;20031;-43
2022/04/03 03:20:44;;;;;;;6.70;5.15;;;1.20;99.90;;;;;;5118735;28;20417;-38
2022/04/03 03:23:10;;;;;;;7.13;4.95;;;1.20;99.90;;;;;;5119247;28;20080;-46
2022/04/03 03:25:35;;;;;;;9.10;5.30;;;1.10;99.90;;;;;;5118204;28;20036;-46
2022/04/03 03:28:01;;;;;;;7.20;4.82;;;1.10;99.90;;;;;;5117869;28;20483;-42
2022/04/03 03:30:27;;;;;;;6.72;4.75;;;1.10;99.90;;;;;;5118605;28;20024;-44
2022/04/03 03:32:53;;;;;;;7.25;5.30;;;1.10;99.90;;;;;;5120371;28;20486;-46
2022/04/03 03:35:18;;;;;;;6.45;4.72;;;1.10;99.90;;;;;;5103390;28;20027;-44
2022/04/03 03:37:44;;;;;;;8.63;5.35;;;1.10;99.90;;;;;;5120554;28;20032;-44
2022/04/03 03:40:11;;;;;;;6.80;4.80;;;1.10;99.90;;;;;;5120838;28;20080;-46
2022/04/03 03:42:41;;;;;;;6.38;4.72;;;1.10;99.90;;;;;;5121233;28;20077;-43
2022/04/03 03:45:08;;;;;;;6.93;5.03;;;1.00;99.90;;;;;;5120795;28;20106;-48
2022/04/03 03:47:34;;;;;;;4.80;4.18;;;1.00;99.90;;;;;;5120985;28;20028;-39
2022/04/03 03:49:59;;;;;;;5.40;4.65;;;1.10;99.90;;;;;;5121374;28;20041;-48
2022/04/03 03:52:25;;;;;;;6.55;4.60;;;1.20;99.90;;;;;;5121546;28;20024;-45
2022/04/03 03:54:52;;;;;;;5.15;4.35;;;1.20;99.90;;;;;;5102351;28;20020;-46
2022/04/03 03:57:18;;;;;;;7.40;4.75;;;1.10;99.90;;;;;;5121130;28;20406;-46
2022/04/03 03:59:44;;;;;;;6.65;5.28;;;1.00;99.90;;;;;;5121094;28;20111;-43
2022/04/03 04:02:09;;;;;;;4.95;4.20;;;1.10;99.90;;;;;;5121374;28;20055;-44
2022/04/03 04:04:35;;;;;;;5.45;4.25;;;1.10;99.90;;;;;;5120868;28;20073;-43
2022/04/03 04:07:01;;;;;;;4.55;3.90;;;1.00;99.90;;;;;;5120598;28;20028;-42
2022/04/03 04:09:26;;;;;;;6.63;3.88;;;0.90;99.90;;;;;;5121733;28;20054;-50
2022/04/03 04:11:52;;;;;;;5.47;3.50;;;1.00;99.90;;;;;;5121281;28;20028;-40
2022/04/03 04:14:17;;;;;;;7.93;4.05;;;0.90;99.90;;;;;;5121093;28;20051;-45
2022/04/03 04:16:43;;;;;;;6.57;4.40;;;1.00;99.90;;;;;;5120250;28;20434;-45
2022/04/03 04:19:09;;;;;;;5.88;4.03;;;0.90;99.90;;;;;;5120634;28;20028;-43
2022/04/03 04:21:35;;;;;;;5.53;4.28;;;0.90;99.90;;;;;;5121720;28;20080;-39
2022/04/03 04:26:26;;;;;;;5.05;4.55;;;0.90;99.90;;;;;;5129515;22;20398;-41
2022/04/03 04:28:51;;;;;;;6.28;4.38;;;0.90;99.90;;;;;;5114189;28;20426;-42
2022/04/03 04:31:18;;;;;;;6.43;4.47;;;0.90;99.90;;;;;;5114838;28;20073;-45
2022/04/03 04:33:43;;;;;;;4.28;3.75;;;0.90;99.90;;;;;;5114921;28;20035;-41
2022/04/03 04:36:09;;;;;;;5.78;3.78;;;0.90;99.90;;;;;;5114757;28;20015;-42
2022/04/03 04:38:35;;;;;;;7.00;5.20;;;0.90;99.90;;;;;;5114631;28;20050;-41
2022/04/03 04:41:00;;;;;;;5.72;4.30;;;0.90;99.90;;;;;;5114553;28;20016;-41
2022/04/03 04:43:26;;;;;;;5.43;4.25;;;0.90;99.90;;;;;;5113589;28;20023;-42
2022/04/03 04:45:51;;;;;;;7.63;4.55;;;0.90;99.90;;;;;;5114493;28;20020;-42
2022/04/03 04:48:17;;;;;;;5.15;4.05;;;1.00;99.90;;;;;;5096188;28;20032;-40
2022/04/03 04:50:42;;;;;;;8.50;4.13;;;1.00;99.90;;;;;;5114447;28;20030;-43
2022/04/03 04:53:08;;;;;;;3.72;3.42;;;1.00;99.90;;;;;;5114480;28;20028;-42
2022/04/03 04:55:33;;;;;;;4.75;3.75;;;1.00;99.90;;;;;;5114238;28;20466;-40
2022/04/03 04:57:59;;;;;;;4.72;3.83;;;1.00;99.90;;;;;;5095849;28;20032;-41
2022/04/03 05:00:28;;;;;;;8.95;4.72;;;1.00;99.90;;;;;;5096133;28;20024;-43
2022/04/03 05:02:55;;;;;;;4.53;3.65;;;0.90;99.90;;;;;;5114798;28;20036;-44
2022/04/03 05:05:22;;;;;;;5.65;4.25;;;0.90;99.90;;;;;;5114940;28;20032;-44
2022/04/03 05:07:51;;;;;;;5.65;4.22;;;0.90;99.90;;;;;;5115855;28;20050;-41
2022/04/03 05:10:17;;;;;;;8.10;4.38;;;0.80;99.90;;;;;;5097902;28;20027;-41
2022/04/03 05:12:44;;;;;;;5.53;4.10;;;0.80;99.90;;;;;;5116649;28;20049;-41
2022/04/03 05:15:11;;;;;;;5.43;4.70;;;0.80;99.90;;;;;;5098644;28;20024;-44
2022/04/03 05:17:37;;;;;;;5.93;4.47;;;0.80;99.90;;;;;;5115949;28;20395;-41
2022/04/03 05:20:03;;;;;;;5.90;4.72;;;0.90;99.90;;;;;;5097908;28;20019;-41
2022/04/03 05:22:29;;;;;;;9.60;6.18;;;0.90;99.90;;;;;;5116501;28;20027;-42
2022/04/03 05:24:55;;;;;;;8.50;6.10;;;1.00;99.90;;;;;;5114613;28;20047;-41
2022/04/03 05:27:21;;;;;;;7.97;5.88;;;1.10;99.90;;;;;;5095391;28;20035;-43
2022/04/03 05:29:47;;;;;;;8.98;5.68;;;1.20;99.90;;;;;;5113962;28;20020;-45
2022/04/03 05:32:13;;;;;;;5.80;4.72;;;1.30;99.90;;;;;;5113967;28;20107;-43
2022/04/03 05:34:39;;;;;;;6.53;4.47;;;1.40;99.90;;;;;;5095494;28;20023;-44
2022/04/03 05:37:05;;;;;;;4.93;4.20;;;1.40;99.90;;;;;;5113302;28;20020;-43
2022/04/03 05:39:31;;;;;;;7.72;4.10;;;1.60;99.90;;;;;;5095372;28;20397;-41
2022/04/03 05:41:56;;;;;;;6.93;4.18;;;1.60;99.90;;;;;;5113513;28;20028;-44
2022/04/03 05:44:23;;;;;;;6.35;3.72;;;1.80;99.90;;;;;;5113872;28;20077;-43
2022/04/03 05:46:49;;;;;;;4.18;3.33;;;2.10;99.90;;;;;;5113015;28;20039;-45
2022/04/03 05:49:15;;;;;;;6.70;3.58;;;2.30;99.90;;;;;;5094942;28;20130;-47
2022/04/03 05:51:42;;;;;;;5.72;3.67;;;2.50;99.60;;;;;;5113098;28;20059;-44
2022/04/03 05:54:08;;;;;;;3.90;3.50;;;2.80;98.30;;;;;;5094789;28;20580;-43
2022/04/03 05:56:33;;;;;;;4.07;3.35;;;3.00;97.50;;;;;;5113064;28;20114;-42
2022/04/03 05:59:00;;;;;;;4.05;3.60;;;3.30;96.90;;;;;;5112942;28;20023;-41
2022/04/03 06:01:25;;;;;;;4.53;3.63;;;3.60;96.40;;;;;;5113341;28;20027;-44
2022/04/03 06:03:51;;;;;;;3.55;3.20;;;3.60;96.10;;;;;;5113046;28;20491;-43
2022/04/03 06:06:17;;;;;;;6.80;3.78;;;3.50;96.30;;;;;;5112803;28;20509;-42
2022/04/03 06:08:43;;;;;;;3.42;3.13;;;3.40;96.20;;;;;;5112110;28;20114;-45
2022/04/03 06:11:09;;;;;;;4.35;3.10;;;3.30;95.90;;;;;;5112718;28;20027;-41
2022/04/03 06:13:35;;;;;;;5.25;3.72;;;3.00;96.20;;;;;;5112720;28;20024;-43
2022/04/03 06:16:00;;;;;;;6.53;3.92;;;2.80;96.60;;;;;;5112579;28;20020;-45
2022/04/03 06:18:26;;;;;;;6.88;3.78;;;2.70;97.20;;;;;;5112618;28;20028;-41
2022/04/03 06:20:51;;;;;;;6.38;4.18;;;2.40;97.80;;;;;;5112628;28;20092;-41
2022/04/03 06:23:22;;;;;;;7.85;3.85;;;2.40;97.70;;;;;;5112777;28;20019;-42
2022/04/03 06:25:52;;;;;;;5.32;3.95;;;2.30;98.20;;;;;;5112533;28;20040;-42
2022/04/03 06:28:17;;;;;;;5.80;4.05;;;2.30;98.30;;;;;;5094256;28;20114;-41
2022/04/03 06:30:43;;;;;;;5.18;3.95;;;2.30;97.90;;;;;;5112580;28;20066;-42
2022/04/03 06:33:08;;;;;;;5.40;4.18;;;2.30;98.10;;;;;;5094131;28;20055;-41
2022/04/03 06:35:34;;;;;;;8.52;4.40;;;2.20;97.80;;;;;;5112362;28;20016;-40
2022/04/03 06:37:59;;;;;;;7.40;4.25;;;2.20;97.80;;;;;;5112265;28;20513;-40
2022/04/03 06:40:25;;;;;;;4.60;3.55;;;2.20;97.60;;;;;;5113112;28;20024;-43
2022/04/03 06:42:52;;;;;;;3.63;3.33;;;2.20;98.10;;;;;;5115261;28;20184;-40
2022/04/03 06:45:17;;;;;;;11.00;4.05;;;2.30;97.70;;;;;;5114988;28;20020;-42
2022/04/03 06:47:43;;;;;;;3.47;3.17;;;2.60;96.90;;;;;;5113074;28;20403;-43
2022/04/03 06:50:09;;;;;;;4.95;3.42;;;3.10;96.10;;;;;;5112311;28;20019;-42
2022/04/03 06:52:36;;;;;;;7.35;2.80;;;3.50;95.50;;;;;;5112385;28;20019;-46
2022/04/03 06:55:03;;;;;;;3.50;2.40;;;4.10;94.30;;;;;;5112676;28;20057;-40
2022/04/03 06:57:29;;;;;;;3.33;2.03;;;4.30;91.50;;;;;;5113917;28;20444;-41
2022/04/03 06:59:54;;;;;;;2.50;2.20;;;4.80;90.40;;;;;;5096455;28;20024;-41
2022/04/03 07:02:20;;;;;;;5.22;2.67;;;5.40;87.50;;;;;;5096003;28;20027;-41
2022/04/03 07:04:45;;;;;;;7.72;2.47;;;5.60;84.30;;;;;;5113952;28;20024;-40
2022/04/03 07:07:11;;;;;;;4.50;2.15;;;6.00;83.80;;;;;;5112755;28;20083;-42
2022/04/03 07:09:41;;;;;;;3.35;2.13;;;;;;;;;;5113438;28;20078;-44
2022/04/03 07:12:10;;;;;;;6.75;1.92;;;6.90;77.60;;;;;;5112097;28;20023;-45
2022/04/03 07:14:35;;;;;;;3.67;2.47;;;6.60;77.20;;;;;;5111885;28;20016;-43
2022/04/03 07:17:01;;;;;;;4.90;2.97;;;6.70;78.60;;;;;;5093153;28;20023;-44
2022/04/03 07:19:27;;;;;;;3.55;2.20;;;6.50;76.70;;;;;;5111766;28;20027;-42
2022/04/03 07:21:52;;;;;;;1.90;1.80;;;5.90;77.50;;;;;;5111803;28;20030;-41
2022/04/03 07:24:18;;;;;;;3.97;2.45;;;5.80;77.00;;;;;;5111580;28;20067;-41
2022/04/03 07:26:43;;;;;;;4.25;1.90;;;5.60;78.30;;;;;;5111638;28;20118;-45
2022/04/03 07:29:09;;;;;;;2.53;2.33;;;5.60;77.80;;;;;;5111591;28;20078;-44
2022/04/03 07:31:34;;;;;;;2.60;2.40;;;5.40;77.50;;;;;;5111818;28;20016;-42
2022/04/03 07:34:00;;;;;;;6.72;2.47;;;5.50;78.60;;;;;;5093494;28;20043;-41
2022/04/03 07:36:26;;;;;;;4.50;2.30;;;5.40;77.80;;;;;;5111455;28;20387;-43
2022/04/03 07:38:52;;;;;;;2.65;2.28;;;5.60;78.00;;;;;;5111769;28;20677;-40
2022/04/03 07:41:19;;;;;;;2.80;2.40;;;6.00;77.10;;;;;;5111752;28;20099;-44
2022/04/03 07:43:45;;;;;;;3.17;2.22;;;6.20;76.90;;;;;;5111621;28;20512;-47
2022/04/03 07:46:15;;;;;;;2.97;1.95;;;7.00;75.60;;;;;;5111595;28;20027;-41
2022/04/03 07:48:40;;;;;;;2.55;2.25;;;7.50;73.80;;;;;;5093195;28;20119;-42
2022/04/03 07:51:06;;;;;;;3.75;2.10;;;7.70;72.40;;;;;;5111706;28;20059;-40
2022/04/03 07:53:32;;;;;;;2.00;1.90;;;8.00;71.60;;;;;;5111588;28;20030;-42
2022/04/03 07:55:57;;;;;;;4.15;2.10;;;8.60;71.50;;;;;;5111470;28;20103;-45
2022/04/03 07:58:22;;;;;;;3.42;2.08;;;9.00;68.30;;;;;;5111288;28;20043;-43
2022/04/03 08:00:48;;;;;;;3.40;3.10;;;8.40;68.30;;;;;;5093298;28;20024;-41
2022/04/03 08:03:14;;;;;;;5.10;1.95;;;8.10;69.00;;;;;;5111338;28;20028;-43
2022/04/03 08:05:40;;;;;;;4.20;2.40;;;8.10;68.80;;;;;;5093243;28;20019;-44
2022/04/03 08:08:06;;;;;;;3.83;2.75;;;8.20;69.80;;;;;;5110664;28;20020;-43
2022/04/03 08:10:32;;;;;;;3.85;2.03;;;8.50;66.60;;;;;;5092991;28;20058;-44
2022/04/03 08:12:57;;;;;;;3.15;2.10;;;8.30;67.50;;;;;;5111319;28;20088;-43
2022/04/03 08:15:24;;;;;;;2.35;2.05;;;8.00;68.20;;;;;;5111111;28;20031;-42
2022/04/03 08:17:50;;;;;;;2.88;1.95;;;8.80;68.70;;;;;;5092801;28;20285;-43
2022/04/03 08:20:17;;;;;;;5.30;2.28;;;9.30;67.00;;;;;;5114983;28;20028;-43
2022/04/03 08:22:44;;;;;;;2.20;1.80;;;9.70;64.20;;;;;;5114937;28;20042;-42
2022/04/03 08:25:12;;;;;;;7.80;2.40;;;9.80;64.50;;;;;;5114762;28;20036;-43
2022/04/03 08:27:44;;;;;;;2.45;2.13;;;10.30;64.60;;;;;;5114727;28;20111;-44
2022/04/03 08:30:16;;;;;;;2.38;1.73;;;10.70;62.80;;;;;;5115342;28;20051;-44
2022/04/03 08:32:42;;;;;;;1.77;1.63;;;10.20;59.60;;;;;;5114754;28;20015;-43
2022/04/03 08:35:09;;;;;;;2.03;1.70;;;9.60;60.80;;;;;;5114688;28;20032;-46
2022/04/03 08:37:35;;;;;;;3.00;2.00;;;9.30;62.20;;;;;;5096235;28;20020;-42
2022/04/03 08:40:03;;;;;;;1.90;1.80;;;9.20;62.10;;;;;;5114568;28;20479;-44
2022/04/03 08:42:29;;;;;;;2.33;2.08;;;9.20;60.90;;;;;;5114413;28;20390;-42
2022/04/03 08:44:55;;;;;;;1.40;1.30;;;8.70;60.30;;;;;;5114409;28;20026;-43
2022/04/03 08:47:20;;;;;;;1.67;1.52;;;8.40;61.20;;;;;;5096195;28;20293;-42
2022/04/03 08:49:47;;;;;;;1.55;1.45;;;8.10;61.00;;;;;;5114555;28;20056;-39
2022/04/03 08:52:13;;;;;;;2.95;1.80;;;8.50;58.90;;;;;;5114512;28;20104;-43
2022/04/03 08:54:39;;;;;;;1.90;1.70;;;8.40;59.80;;;;;;5096066;28;20025;-45
2022/04/03 08:57:06;;;;;;;1.92;1.75;;;9.10;59.50;;;;;;5114031;28;20027;-42
2022/04/03 08:59:31;;;;;;;1.83;1.65;;;9.60;55.40;;;;;;5114419;28;20027;-42
2022/04/03 09:01:57;;;;;;;2.75;1.40;;;10.20;55.70;;;;;;5114315;28;20027;-43
2022/04/03 09:04:22;;;;;;;2.58;1.48;;;10.70;53.30;;;;;;5114340;28;20498;-42
2022/04/03 09:06:56;;;;;;;1.85;1.35;;;10.50;56.50;;;;;;5113924;28;20080;-44
2022/04/03 09:09:23;;;;;;;1.70;1.20;;;10.80;49.50;;;;;;5114214;28;20035;-48
2022/04/03 09:12:10;;;;;;;2.97;1.20;;;10.40;51.30;;;;;;5114349;28;20073;-40
2022/04/03 09:14:43;;;;;;;3.80;1.85;;;10.70;51.10;;;;;;5113903;28;20024;-42
2022/04/03 09:17:09;;;;;;;1.42;1.17;;;10.20;52.20;;;;;;5113852;28;20486;-42
2022/04/03 09:19:34;;;;;;;1.95;1.80;;;10.20;51.60;;;;;;5113793;28;20028;-46
2022/04/03 09:22:01;;;;;;;1.23;1.23;;;9.70;48.10;;;;;;5113968;28;20024;-42
2022/04/03 09:24:27;;;;;;;1.48;1.38;;;8.90;48.20;;;;;;5113660;28;20027;-43
2022/04/03 09:27:01;;;;;;;1.60;1.10;;;8.80;49.40;;;;;;5113528;28;20032;-43
2022/04/03 09:29:27;;;;;;;2.38;1.35;;;8.30;47.60;;;;;;5113245;28;20030;-45
2022/04/03 09:32:00;;;;;;;1.58;1.48;;;8.30;51.20;;;;;;5095459;28;20027;-41
2022/04/03 09:34:28;;;;;;;1.70;1.25;;;8.10;48.20;;;;;;5113478;28;20083;-43
2022/04/03 09:36:58;;;;;;;3.53;1.55;;;7.50;49.50;;;;;;5113378;28;20028;-40
2022/04/03 09:39:27;;;;;;;3.92;1.70;;;7.40;52.50;;;;;;5113612;28;20061;-42
2022/04/03 09:42:12;;;;;;;2.05;1.30;;;7.70;51.20;;;;;;5113605;28;20443;-41
2022/04/03 09:44:43;;;;;;;1.27;1.20;;;7.60;51.00;;;;;;5094880;28;20398;-42
2022/04/03 09:47:20;;;;;;;1.98;1.20;;;7.50;50.70;;;;;;5113583;28;20032;-43
2022/04/03 09:49:51;;;;;;;1.30;1.20;;;7.80;52.10;;;;;;5113463;28;20020;-44
2022/04/03 09:52:40;;;;;;;1.77;1.38;;;7.40;50.00;;;;;;5113374;28;20015;-43
2022/04/03 09:55:17;;;;;;;1.42;1.33;;;7.20;50.20;;;;;;5113118;28;20019;-42
2022/04/03 09:57:45;;;;;;;2.67;1.52;;;6.80;50.80;;;;;;5112725;28;20398;-40
2022/04/03 10:00:11;;;;;;;2.80;1.30;;;7.00;51.90;;;;;;5113140;28;20024;-44
2022/04/03 10:02:37;;;;;;;1.40;1.30;;;7.20;52.00;;;;;;5113138;28;20474;-43
2022/04/03 10:05:04;;;;;;;1.40;1.30;;;7.20;52.40;;;;;;5113011;28;20023;-44
2022/04/03 10:07:31;;;;;;;2.03;1.55;;;7.10;52.20;;;;;;5093837;28;20024;-43
2022/04/03 10:09:58;;;;;;;2.03;1.80;;;7.40;53.40;;;;;;5112961;28;20550;-40
2022/04/03 10:12:23;;;;;;;1.33;1.30;;;7.50;52.60;;;;;;5113277;28;20478;-42
2022/04/03 10:14:51;;;;;;;2.80;1.55;;;7.60;55.10;;;;;;5112723;28;20026;-42
2022/04/03 10:17:18;;;;;;;2.40;1.85;;;7.70;54.00;;;;;;5112534;28;20048;-41
2022/04/03 10:19:44;;;;;;;1.30;1.30;;;8.00;54.10;;;;;;5112734;28;20028;-43
2022/04/03 10:22:21;;;;;;;1.50;1.33;;;7.50;52.30;;;;;;5113020;28;20072;-43
2022/04/03 10:24:53;;;;;;;3.17;2.38;;;7.30;53.20;;;;;;5134388;22;20036;-39
2022/04/03 10:27:23;;;;;;;1.27;1.27;;;6.90;53.50;;;;;;5096783;28;20085;-43
2022/04/03 10:29:49;;;;;;;2.83;1.98;;;6.70;54.30;;;;;;5116145;28;20023;-42
2022/04/03 10:32:23;;;;;;;1.33;1.30;;;6.60;54.10;;;;;;5115183;28;20068;-42
2022/04/03 10:34:50;;;;;;;1.55;1.45;;;6.90;53.90;;;;;;5097636;28;20106;-45
2022/04/03 10:37:29;;;;;;;1.42;1.33;;;6.90;56.20;;;;;;5114365;28;20467;-44
2022/04/03 10:40:06;;;;;;;1.90;1.77;;;6.90;55.00;;;;;;5114739;28;20046;-39
2022/04/03 10:42:31;;;;;;;2.22;1.60;;;7.10;54.10;;;;;;5113954;28;20023;-46
2022/04/03 10:45:12;;;;;;;1.80;1.70;;;6.70;53.80;;;;;;5114429;28;20023;-44
2022/04/03 10:47:39;;;;;;;2.15;1.67;;;6.60;56.10;;;;;;5114909;28;20035;-44
2022/04/03 10:50:06;;;;;;;1.80;1.70;;;6.60;56.60;;;;;;5096697;28;20026;-41
2022/04/03 10:52:37;;;;;;;1.88;1.77;;;6.50;54.90;;;;;;5114616;28;20106;-40
2022/04/03 10:55:15;;;;;;;4.20;1.73;;;6.80;56.70;;;;;;5114354;28;20016;-47
2022/04/03 10:57:47;;;;;;;1.65;1.55;;;6.90;54.70;;;;;;5114431;28;20046;-44
2022/04/03 11:00:13;;;;;;;1.30;1.30;;;6.70;56.00;;;;;;5114979;28;20030;-44
2022/04/03 11:02:51;;;;;;;2.92;1.83;;;6.80;56.20;;;;;;5096516;28;20027;-43
2022/04/03 11:05:22;;;;;;;2.60;1.83;;;6.90;55.60;;;;;;5114476;28;20118;-39
2022/04/03 11:08:08;;;;;;;2.65;1.67;;;6.80;56.20;;;;;;5095594;28;20529;-42
2022/04/03 11:10:43;;;;;;;;;;;6.90;55.70;;;;;;5101509;28;20507;-43
2022/04/03 11:13:08;;;;;;;1.83;1.63;;;6.90;55.40;;;;;;5112090;28;19996;-41
2022/04/03 11:15:56;;;;;;;2.55;2.15;;;7.00;56.60;;;;;;5112074;28;20073;-44
2022/04/03 11:18:47;;;;;;;4.45;2.03;;;7.00;55.60;;;;;;5111796;28;20028;-46
2022/04/03 11:21:33;;;;;;;1.92;1.73;;;6.80;55.60;;;;;;5112097;28;20028;-41
2022/04/03 11:24:09;;;;;;;1.95;1.60;;;6.80;56.00;;;;;;5093873;28;20024;-44
2022/04/03 11:26:37;;;;;;;1.60;1.50;;;6.40;55.50;;;;;;5112019;28;20058;-42
2022/04/03 11:29:04;;;;;;;3.97;2.00;;;6.30;54.40;;;;;;5112054;28;20060;-42
2022/04/03 11:31:30;;;;;;;2.22;2.03;;;6.30;56.50;;;;;;5111949;28;20390;-36
2022/04/03 11:33:57;;;;;;;2.17;1.90;;;6.30;58.20;;;;;;5112269;28;20016;-41
2022/04/03 11:36:30;;;;;;;2.10;1.85;;;6.30;57.90;;;;;;5112036;28;20031;-42
2022/04/03 11:38:58;;;;;;;2.22;2.03;;;6.40;56.70;;;;;;5111670;28;20027;-41
2022/04/03 11:41:34;;;;;;;1.60;1.50;;;6.60;56.80;;;;;;5111958;28;20402;-42
2022/04/03 11:44:02;;;;;;;5.78;3.42;;;6.80;57.50;;;;;;5111584;28;20033;-44
2022/04/03 11:46:28;;;;;;;2.63;2.42;;;7.00;57.80;;;;;;5111562;28;20506;-46
2022/04/03 11:48:54;;;;;;;3.22;1.67;;;7.20;58.60;;;;;;5111399;28;20035;-42
2022/04/03 11:51:20;;;;;;;4.78;2.05;;;7.10;57.40;;;;;;5111631;28;20016;-45
2022/04/03 11:53:53;;;;;;;2.30;2.10;;;7.20;57.20;;;;;;5114684;28;20030;-38
2022/04/03 11:56:19;;;;;;;1.83;1.67;;;6.80;57.20;;;;;;5115658;28;20034;-42
2022/04/03 11:58:50;;;;;;;3.60;2.28;;;6.90;58.50;;;;;;5115304;28;20019;-37
2022/04/03 12:01:34;;;;;;;2.50;2.33;;;6.80;56.70;;;;;;5115418;28;20386;-41
2022/04/03 12:04:13;;;;;;;3.28;2.13;;;6.40;56.40;;;;;;5115569;28;20018;-39
2022/04/03 12:06:48;;;;;;;2.08;1.92;;;6.20;57.40;;;;;;5115308;28;20064;-43
2022/04/03 12:09:16;;;;;;;2.20;1.85;;;6.20;57.80;;;;;;5114862;28;20022;-42
2022/04/03 12:11:49;;;;;;;2.55;1.85;;;6.40;59.10;;;;;;5115348;28;20047;-37
2022/04/03 12:14:26;;;;;;;1.98;1.85;;;6.60;57.40;;;;;;5115388;28;20027;-44
2022/04/03 12:17:00;;;;;;;3.58;2.33;;;6.50;56.40;;;;;;5108596;28;20024;-39
2022/04/03 12:19:28;;;;;;;2.70;2.00;;;6.40;56.80;;;;;;5089029;28;20055;-38
2022/04/03 12:21:56;;;;;;;5.75;1.92;;;6.50;57.80;;;;;;5105503;28;20390;-39
2022/04/03 12:24:29;;;;;;;2.38;2.03;;;6.60;56.20;;;;;;5105677;28;20020;-43
2022/04/03 12:26:58;;;;;;;1.92;1.83;;;6.70;59.40;;;;;;5103591;28;20049;-37
2022/04/03 12:29:26;;;;;;;2.13;1.92;;;6.90;57.00;;;;;;5103120;28;20029;-41
2022/04/03 12:32:00;;;;;;;2.35;2.15;;;6.70;56.70;;;;;;5085312;28;20430;-40
2022/04/03 12:34:28;;;;;;;2.08;1.77;;;6.50;56.40;;;;;;5103766;28;20436;-45
2022/04/03 12:36:55;;;;;;;2.50;2.30;;;6.40;56.60;;;;;;5104270;28;20406;-38
2022/04/03 12:39:27;;;;;;;2.17;2.00;;;6.30;55.50;;;;;;5105919;28;20028;-38
2022/04/03 12:41:53;;;;;;;2.40;2.20;;;6.10;57.00;;;;;;5105059;28;20024;-38
2022/04/03 12:44:19;;;;;;;3.53;2.30;;;6.20;57.30;;;;;;5086650;28;20391;-41
2022/04/03 12:46:46;;;;;;;3.17;2.10;;;6.40;58.40;;;;;;5104796;28;20115;-44
2022/04/03 12:49:20;;;;;;;2.15;1.85;;;6.50;58.40;;;;;;5104598;28;20608;-39
2022/04/03 12:51:47;;;;;;;2.00;1.83;;;6.40;57.30;;;;;;5104935;28;20387;-37
2022/04/03 12:54:13;;;;;;;3.65;2.00;;;6.50;55.90;;;;;;5106840;28;20441;-39
2022/04/03 12:59:22;;;;;;;2.28;2.17;;;6.50;57.00;;;;;;5105098;28;20077;-41
2022/04/03 13:01:53;;;;;;;4.35;2.33;;;6.50;57.90;;;;;;5108624;28;20475;-40
2022/04/03 13:04:34;;;;;;;4.40;2.85;;;6.70;58.10;;;;;;5094962;28;20040;-44